Time;durP1;ratioP1;P1;durP2;ratioP2;P2;SDS_P1;SDS_P2;PMS_P1;PMS_P2;Temp;Humidity;BMP_temperature;BMP_pressure;BME280_temperature;BME280_humidity;BME280_pressure;Samples;Min_cycle;Max_cycle;Signal;HPM_P1;HPM_P2
2024/02/27 00:00:27;;;;;;;9.50;5.93;;;;;;;3.59;100.00;94971.31;1029489;28;20034;-64
2024/02/27 00:00:58;;;;;;;10.95;5.45;;;;;;;3.58;100.00;94970.53;1031693;28;20445;-63
2024/02/27 00:01:28;;;;;;;10.05;5.28;;;;;;;3.59;100.00;94977.31;1031784;28;20116;-64
2024/02/27 00:01:59;;;;;;;12.93;5.75;;;;;;;3.58;100.00;94967.94;1035641;28;20087;-61
2024/02/27 00:02:30;;;;;;;12.00;5.60;;;;;;;3.58;100.00;94972.34;1035830;28;20121;-64
2024/02/27 00:03:01;;;;;;;10.68;5.30;;;;;;;3.58;100.00;94970.53;1039702;28;20495;-63
2024/02/27 00:03:32;;;;;;;11.07;5.45;;;;;;;3.58;100.00;94969.75;1039942;28;20099;-64
2024/02/27 00:04:03;;;;;;;10.68;5.22;;;;;;;3.57;100.00;94981.16;1035856;28;20358;-64
2024/02/27 00:04:34;;;;;;;12.73;5.78;;;;;;;3.57;100.00;94983.75;1039688;28;20417;-63
2024/02/27 00:05:05;;;;;;;10.82;5.65;;;;;;;3.54;100.00;94978.00;1039892;28;20111;-64
2024/02/27 00:05:35;;;;;;;11.07;6.05;;;;;;;3.57;100.00;94983.75;1038702;28;20389;-64
2024/02/27 00:06:07;;;;;;;11.57;6.03;;;;;;;3.54;100.00;94983.19;1040040;28;20034;-64
2024/02/27 00:06:37;;;;;;;10.75;6.45;;;;;;;3.54;100.00;94987.59;1039658;28;20532;-63
2024/02/27 00:07:11;;;;;;;11.30;5.57;;;;;;;3.53;100.00;94988.63;1039559;28;20264;-63
2024/02/27 00:07:42;;;;;;;8.60;5.53;;;;;;;3.54;100.00;94990.19;1040329;28;20511;-63
2024/02/27 00:08:12;;;;;;;12.13;5.63;;;;;;;3.53;100.00;94989.41;1040054;28;20271;-64
2024/02/27 00:08:43;;;;;;;9.35;5.10;;;;;;;3.54;100.00;94996.16;1039689;28;20030;-63
2024/02/27 00:09:17;;;;;;;9.82;5.70;;;;;;;3.52;100.00;94989.63;1035658;28;20030;-63
2024/02/27 00:09:47;;;;;;;11.70;5.57;;;;;;;3.51;100.00;94991.44;1035646;28;20037;-63
2024/02/27 00:10:18;;;;;;;9.15;5.53;;;;;;;3.53;100.00;94999.00;1031731;28;20276;-62
2024/02/27 00:10:49;;;;;;;10.95;5.55;;;;;;;3.51;100.00;95001.03;1029839;28;20121;-64
2024/02/27 00:11:20;;;;;;;12.05;6.07;;;;;;;3.50;100.00;95000.25;1031584;28;20149;-63
2024/02/27 00:11:51;;;;;;;9.77;5.05;;;;;;;3.49;100.00;95000.50;1031992;28;20385;-63
2024/02/27 00:12:21;;;;;;;10.18;5.63;;;;;;;3.49;100.00;95001.28;1037017;28;20289;-63
2024/02/27 00:12:52;;;;;;;12.65;5.57;;;;;;;3.49;100.00;95010.88;1043762;28;20029;-64
2024/02/27 00:13:22;;;;;;;9.23;5.65;;;;;;;3.49;100.00;95011.66;1043857;28;20650;-63
2024/02/27 00:13:53;;;;;;;12.10;5.88;;;;;;;3.47;100.00;95011.09;1035305;28;20018;-63
2024/02/27 00:14:23;;;;;;;12.45;5.93;;;;;;;3.47;100.00;95011.09;1035722;28;20029;-63
2024/02/27 00:14:54;;;;;;;12.88;6.00;;;;;;;3.46;100.00;95014.72;1035560;28;20018;-63
2024/02/27 00:15:24;;;;;;;12.48;5.70;;;;;;;3.45;100.00;95015.72;1035615;28;20022;-63
2024/02/27 00:15:55;;;;;;;11.40;6.32;;;;;;;3.45;100.00;95013.13;1039959;28;20488;-64
2024/02/27 00:16:25;;;;;;;9.43;5.55;;;;;;;3.46;100.00;95019.91;1039914;28;20025;-63
2024/02/27 00:16:56;;;;;;;11.85;5.93;;;;;;;3.46;100.00;95019.91;1039506;28;20025;-64
2024/02/27 00:17:26;;;;;;;10.75;5.95;;;;;;;3.45;100.00;95028.69;1039470;28;20029;-63
2024/02/27 00:17:56;;;;;;;11.68;5.97;;;;;;;3.45;100.00;95020.13;1039576;28;20107;-63
2024/02/27 00:18:27;;;;;;;11.02;6.00;;;;;;;3.45;100.00;95023.50;1039607;28;20045;-63
2024/02/27 00:18:57;;;;;;;14.07;5.97;;;;;;;3.44;100.00;95027.13;1039503;28;20084;-64
2024/02/27 00:19:28;;;;;;;13.55;5.88;;;;;;;3.45;100.00;95027.91;1035154;28;20044;-64
2024/02/27 00:19:58;;;;;;;10.45;5.70;;;;;;;3.44;100.00;95034.91;1035718;28;20064;-64
2024/02/27 00:20:29;;;;;;;9.50;5.13;;;;;;;3.44;100.00;95037.50;1034922;28;20022;-62
2024/02/27 00:20:59;;;;;;;12.55;5.88;;;;;;;3.44;100.00;95037.50;1039476;28;20017;-64
2024/02/27 00:21:30;;;;;;;12.07;6.00;;;;;;;3.43;100.00;95035.16;1040184;28;20026;-64
2024/02/27 00:22:00;;;;;;;12.57;6.07;;;;;;;3.44;100.00;95041.91;1040002;28;20493;-64
2024/02/27 00:22:31;;;;;;;10.23;5.40;;;;;;;3.43;100.00;95041.13;1039894;28;20030;-64
2024/02/27 00:23:01;;;;;;;11.20;5.43;;;;;;;3.43;100.00;95046.31;1040108;28;20661;-63
2024/02/27 00:23:32;;;;;;;12.65;6.00;;;;;;;3.41;100.00;95043.16;1039910;28;20022;-64
2024/02/27 00:24:03;;;;;;;10.75;5.47;;;;;;;3.42;100.00;95044.75;1040166;28;20485;-63
2024/02/27 00:24:33;;;;;;;11.88;5.82;;;;;;;3.42;100.00;95033.56;1039328;28;20025;-63
2024/02/27 00:25:04;;;;;;;11.55;6.25;;;;;;;3.41;100.00;95042.38;1035513;28;20053;-63
2024/02/27 00:25:34;;;;;;;10.73;5.78;;;;;;;3.40;100.00;95036.41;1035607;28;20029;-64
2024/02/27 00:26:05;;;;;;;8.15;5.13;;;;;;;3.40;100.00;95041.59;1037962;28;20025;-64
2024/02/27 00:26:35;;;;;;;11.27;5.70;;;;;;;3.39;100.00;95040.03;1039915;28;20021;-63
2024/02/27 00:27:06;;;;;;;10.55;5.47;;;;;;;3.40;100.00;95036.41;1039496;28;20033;-63
2024/02/27 00:27:36;;;;;;;9.60;5.05;;;;;;;3.40;100.00;95044.19;1037619;28;20420;-65
2024/02/27 00:28:07;;;;;;;19.45;6.78;;;;;;;3.41;100.00;95042.38;1038328;28;20462;-64
2024/02/27 00:28:37;;;;;;;10.73;6.18;;;;;;;3.38;100.00;95051.41;1043463;28;20085;-64
2024/02/27 00:29:07;;;;;;;10.35;5.32;;;;;;;3.38;100.00;95043.63;1043905;28;20473;-65
2024/02/27 00:29:40;;;;;;;10.60;6.05;;;;;;;3.38;100.00;95048.81;1041874;28;20067;-63
2024/02/27 00:30:11;;;;;;;11.32;5.40;;;;;;;3.38;100.00;95048.03;1039976;28;20484;-64
2024/02/27 00:30:42;;;;;;;7.97;4.93;;;;;;;3.35;100.00;95046.66;1042772;28;20264;-63
2024/02/27 00:31:12;;;;;;;9.38;5.85;;;;;;;3.36;100.00;95045.66;1044002;28;20557;-64
2024/02/27 00:31:45;;;;;;;11.23;5.75;;;;;;;3.36;100.00;95043.06;1039182;28;20429;-64
2024/02/27 00:32:15;;;;;;;10.32;5.85;;;;;;;3.36;100.00;95050.84;1039646;28;20257;-63
2024/02/27 00:32:46;;;;;;;10.02;5.50;;;;;;;3.37;100.00;95047.22;1039318;28;20021;-64
2024/02/27 00:33:16;;;;;;;8.98;5.22;;;;;;;3.35;100.00;95049.25;1039496;28;20385;-63
2024/02/27 00:33:47;;;;;;;12.30;6.45;;;;;;;3.35;100.00;95036.31;1040801;28;20017;-64
2024/02/27 00:34:17;;;;;;;11.93;5.75;;;;;;;3.35;100.00;95049.25;1039904;28;20025;-64
2024/02/27 00:34:49;;;;;;;11.55;5.93;;;;;;;3.33;100.00;95046.13;1043657;28;20028;-64
2024/02/27 00:35:19;;;;;;;12.25;6.25;;;;;;;3.36;100.00;95050.06;1043959;28;20472;-66
2024/02/27 00:35:50;;;;;;;13.80;6.32;;;;;;;3.34;100.00;95049.50;1043638;28;20252;-64
2024/02/27 00:36:20;;;;;;;10.77;5.97;;;;;;;3.33;100.00;95048.72;1043712;28;20025;-63
2024/02/27 00:36:51;;;;;;;11.82;5.78;;;;;;;3.35;100.00;95051.06;1043584;28;20075;-63
2024/02/27 00:37:21;;;;;;;13.10;6.07;;;;;;;3.34;100.00;95046.91;1043629;28;20087;-64
2024/02/27 00:37:51;;;;;;;12.32;5.93;;;;;;;3.33;100.00;95046.13;1044021;28;20082;-63
2024/02/27 00:38:22;;;;;;;14.32;6.15;;;;;;;3.34;100.00;95049.50;1043608;28;20033;-64
2024/02/27 00:38:54;;;;;;;12.60;5.53;;;;;;;3.34;100.00;95041.72;1043702;28;20025;-64
2024/02/27 00:39:24;;;;;;;11.18;5.97;;;;;;;3.33;100.00;95046.13;1039478;28;20566;-64
2024/02/27 00:39:55;;;;;;;11.40;6.03;;;;;;;3.33;100.00;95046.13;1035494;28;20319;-65
2024/02/27 00:40:25;;;;;;;11.27;6.05;;;;;;;3.33;100.00;95046.13;1039092;28;20030;-64
2024/02/27 00:40:56;;;;;;;9.68;5.20;;;;;;;3.32;100.00;95049.75;1039526;28;20084;-63
2024/02/27 00:41:26;;;;;;;15.88;7.03;;;;;;;3.33;100.00;95046.13;1043342;28;20029;-64
2024/02/27 00:41:58;;;;;;;10.65;6.20;;;;;;;3.33;100.00;95040.16;1044155;28;20017;-64
2024/02/27 00:42:29;;;;;;;11.18;5.45;;;;;;;3.33;100.00;95042.75;1043748;28;20119;-63
2024/02/27 00:43:00;;;;;;;10.27;5.95;;;;;;;3.34;100.00;95042.50;1043666;28;20276;-64
2024/02/27 00:43:31;;;;;;;10.32;5.35;;;;;;;3.32;100.00;95039.38;1039380;28;20037;-63
2024/02/27 00:44:01;;;;;;;10.45;6.20;;;;;;;3.34;100.00;95042.50;1035796;28;20357;-63
2024/02/27 00:44:32;;;;;;;11.10;5.78;;;;;;;3.34;100.00;95041.72;1039509;28;20496;-64
2024/02/27 00:45:03;;;;;;;9.32;5.75;;;;;;;3.33;100.00;95028.00;1035367;28;20190;-64
2024/02/27 00:45:33;;;;;;;12.65;6.35;;;;;;;3.33;100.00;95029.81;1035499;28;20030;-64
2024/02/27 00:46:03;;;;;;;11.15;5.55;;;;;;;3.33;100.00;95033.16;1035584;28;20029;-64
2024/02/27 00:46:35;;;;;;;12.77;5.60;;;;;;;3.33;100.00;95022.81;1038325;28;20481;-63
2024/02/27 00:47:06;;;;;;;14.60;5.78;;;;;;;3.32;100.00;95031.59;1035411;28;20057;-63
2024/02/27 00:47:36;;;;;;;10.88;5.93;;;;;;;3.32;100.00;95029.00;1031095;28;20551;-64
2024/02/27 00:48:07;;;;;;;10.27;5.88;;;;;;;3.32;100.00;95029.00;1031411;28;20030;-65
2024/02/27 00:48:37;;;;;;;13.65;6.05;;;;;;;3.31;100.00;95030.00;1033214;28;20026;-64
2024/02/27 00:49:08;;;;;;;8.27;5.25;;;;;;;3.31;100.00;95033.38;1039386;28;20429;-63
2024/02/27 00:49:39;;;;;;;10.00;6.00;;;;;;;3.33;100.00;95029.81;1039700;28;20124;-64
2024/02/27 00:50:10;;;;;;;10.35;5.78;;;;;;;3.35;100.00;95028.53;1039319;28;20029;-62
2024/02/27 00:50:40;;;;;;;12.50;5.95;;;;;;;3.35;100.00;95031.13;1038837;28;20028;-63
2024/02/27 00:51:12;;;;;;;12.43;6.07;;;;;;;3.35;100.00;95030.34;1035421;28;20109;-63
2024/02/27 00:51:42;;;;;;;11.85;6.07;;;;;;;3.36;100.00;95024.94;1035492;28;20014;-63
2024/02/27 00:52:13;;;;;;;11.30;6.07;;;;;;;3.36;100.00;95030.13;1038876;28;20330;-63
2024/02/27 00:52:44;;;;;;;9.02;6.30;;;;;;;3.36;100.00;95024.94;1039718;28;20161;-65
2024/02/27 00:53:14;;;;;;;12.60;6.18;;;;;;;3.37;100.00;95023.91;1043378;28;20056;-63
2024/02/27 00:53:45;;;;;;;10.27;5.30;;;;;;;3.36;100.00;95024.94;1032972;28;20093;-64
2024/02/27 00:54:15;;;;;;;10.35;5.93;;;;;;;3.33;100.00;95020.22;1035263;28;20030;-63
2024/02/27 00:54:46;;;;;;;9.65;5.38;;;;;;;3.35;100.00;95022.56;1035280;28;20034;-64
2024/02/27 00:55:17;;;;;;;10.15;5.40;;;;;;;3.35;100.00;95022.56;1036227;28;20037;-62
2024/02/27 00:55:47;;;;;;;10.30;5.75;;;;;;;3.35;100.00;95017.38;1039593;28;20378;-64
2024/02/27 00:56:18;;;;;;;11.07;5.95;;;;;;;3.36;100.00;95019.75;1039669;28;20527;-63
2024/02/27 00:56:48;;;;;;;11.10;5.80;;;;;;;3.36;100.00;95019.75;1039874;28;20485;-64
2024/02/27 00:57:19;;;;;;;11.18;6.30;;;;;;;3.36;100.00;95017.16;1039626;28;20021;-64
2024/02/27 00:57:49;;;;;;;12.02;5.80;;;;;;;3.39;100.00;95018.50;1039723;28;20087;-63
2024/02/27 00:58:25;;;;;;;11.02;6.07;;;;;;;3.38;100.00;95012.50;1039604;28;20481;-63
2024/02/27 00:58:56;;;;;;;8.73;5.10;;;;;;;3.37;100.00;95016.13;1039277;28;20021;-63
2024/02/27 00:59:27;;;;;;;13.07;6.03;;;;;;;3.33;100.00;95015.03;1039632;28;20312;-63
2024/02/27 00:59:58;;;;;;;11.15;5.90;;;;;;;3.33;100.00;95012.44;1035151;28;20108;-65
2024/02/27 01:00:28;;;;;;;10.57;5.85;;;;;;;3.33;100.00;95009.84;1036251;28;20289;-64
2024/02/27 01:01:00;;;;;;;11.27;5.95;;;;;;;3.32;100.00;95016.06;1035222;28;20378;-63
2024/02/27 01:01:30;;;;;;;11.63;6.20;;;;;;;3.31;100.00;95019.66;1031601;28;20038;-62
2024/02/27 01:02:01;;;;;;;10.93;6.78;;;;;;;3.29;100.00;95014.72;1035272;28;20535;-63
2024/02/27 01:02:31;;;;;;;10.55;6.00;;;;;;;3.25;100.00;95016.19;1031600;28;20126;-63
2024/02/27 01:03:02;;;;;;;11.43;5.90;;;;;;;3.30;100.00;95029.22;1039355;28;20366;-63
2024/02/27 01:03:33;;;;;;;13.73;5.95;;;;;;;3.30;100.00;95026.63;1039632;28;20030;-63
2024/02/27 01:04:03;;;;;;;9.57;5.90;;;;;;;3.31;100.00;95028.22;1042234;28;20661;-64
2024/02/27 01:04:34;;;;;;;14.13;5.82;;;;;;;3.32;100.00;95029.00;1039696;28;20036;-63
2024/02/27 01:05:08;;;;;;;11.18;5.82;;;;;;;3.31;100.00;95037.78;1039744;28;20486;-63
2024/02/27 01:05:38;;;;;;;11.55;6.07;;;;;;;3.35;100.00;95027.75;1039301;28;20037;-63
2024/02/27 01:06:09;;;;;;;13.15;6.10;;;;;;;3.35;100.00;95027.75;1039453;28;20260;-63
2024/02/27 01:06:39;;;;;;;12.68;5.85;;;;;;;3.34;100.00;95024.38;1039368;28;20037;-63
2024/02/27 01:07:10;;;;;;;11.57;5.88;;;;;;;3.34;100.00;95024.38;1035939;28;20022;-63
2024/02/27 01:07:42;;;;;;;10.25;6.45;;;;;;;3.32;100.00;95021.25;1043477;28;20039;-64
2024/02/27 01:08:12;;;;;;;9.90;5.57;;;;;;;3.29;100.00;95014.72;1043399;28;20029;-64
2024/02/27 01:08:43;;;;;;;9.50;6.40;;;;;;;3.29;100.00;95021.69;1043337;28;20895;-64
2024/02/27 01:09:13;;;;;;;13.93;6.25;;;;;;;3.29;100.00;95024.28;1039544;28;20037;-68
2024/02/27 01:09:44;;;;;;;10.05;6.15;;;;;;;3.29;100.00;95024.28;1038729;28;20075;-64
2024/02/27 01:10:14;;;;;;;10.55;5.72;;;;;;;3.29;100.00;95025.06;1039060;28;20025;-63
2024/02/27 01:10:45;;;;;;;11.95;6.45;;;;;;;3.29;100.00;95019.09;1038552;28;20114;-63
2024/02/27 01:11:15;;;;;;;13.68;6.30;;;;;;;3.26;100.00;95022.16;1039683;28;20378;-63
2024/02/27 01:11:46;;;;;;;11.77;6.28;;;;;;;3.27;100.00;95031.50;1039807;28;20099;-63
2024/02/27 01:12:16;;;;;;;11.10;5.63;;;;;;;3.26;100.00;95030.72;1039638;28;20052;-63
2024/02/27 01:12:47;;;;;;;11.55;6.80;;;;;;;3.27;100.00;95031.50;1039640;28;20104;-64
2024/02/27 01:13:17;;;;;;;11.38;6.00;;;;;;;3.25;100.00;95021.38;1039830;28;20024;-64
2024/02/27 01:13:47;;;;;;;10.27;6.53;;;;;;;3.27;100.00;95034.09;1039240;28;20401;-64
2024/02/27 01:14:18;;;;;;;14.57;6.80;;;;;;;3.25;100.00;95023.97;1039496;28;20024;-63
2024/02/27 01:14:48;;;;;;;10.60;6.20;;;;;;;3.24;100.00;95026.78;1039340;28;20036;-64
2024/02/27 01:15:19;;;;;;;10.77;6.30;;;;;;;3.25;100.00;95020.56;1035400;28;20481;-62
2024/02/27 01:15:49;;;;;;;9.13;6.10;;;;;;;3.25;100.00;95023.16;1039277;28;20025;-64
2024/02/27 01:16:20;;;;;;;11.55;6.13;;;;;;;3.25;100.00;95026.56;1039356;28;20025;-64
2024/02/27 01:16:51;;;;;;;11.05;5.95;;;;;;;3.24;100.00;95027.56;1039295;28;20029;-62
2024/02/27 01:17:21;;;;;;;10.15;6.07;;;;;;;3.26;100.00;95035.13;1039746;28;20120;-64
2024/02/27 01:17:52;;;;;;;11.38;6.30;;;;;;;3.26;100.00;95029.94;1039371;28;20033;-64
2024/02/27 01:18:22;;;;;;;9.80;6.10;;;;;;;3.25;100.00;95028.34;1039468;28;20200;-64
2024/02/27 01:18:53;;;;;;;14.25;6.50;;;;;;;3.27;100.00;95021.91;1039344;28;20029;-64
2024/02/27 01:19:23;;;;;;;9.90;5.22;;;;;;;3.26;100.00;95025.53;1039256;28;20041;-63
2024/02/27 01:19:54;;;;;;;11.93;5.57;;;;;;;3.25;100.00;95023.16;1039918;28;20424;-65
2024/02/27 01:20:24;;;;;;;11.32;5.90;;;;;;;3.23;100.00;95017.44;1034635;28;20033;-64
2024/02/27 01:20:55;;;;;;;10.27;5.45;;;;;;;3.24;100.00;95019.78;1036747;28;20030;-63
2024/02/27 01:21:25;;;;;;;12.85;6.53;;;;;;;3.23;100.00;95017.44;1039572;28;20441;-63
2024/02/27 01:21:58;;;;;;;15.57;6.20;;;;;;;3.24;100.00;95022.38;1039480;28;20037;-64
2024/02/27 01:22:29;;;;;;;10.35;6.70;;;;;;;3.24;100.00;95021.59;1036497;28;20034;-63
2024/02/27 01:23:00;;;;;;;11.25;6.20;;;;;;;3.22;100.00;95024.44;1039326;28;20275;-64
2024/02/27 01:23:30;;;;;;;12.18;5.70;;;;;;;3.24;100.00;95016.41;1039204;28;20327;-63
2024/02/27 01:24:02;;;;;;;13.18;6.68;;;;;;;3.25;100.00;95020.56;1039772;28;20033;-64
2024/02/27 01:24:33;;;;;;;11.10;5.95;;;;;;;3.24;100.00;95019.00;1035649;28;20272;-63
2024/02/27 01:25:04;;;;;;;12.82;6.47;;;;;;;3.26;100.00;95022.94;1039291;28;20270;-63
2024/02/27 01:25:34;;;;;;;12.80;6.65;;;;;;;3.25;100.00;95016.19;1039467;28;20116;-63
2024/02/27 01:26:05;;;;;;;14.13;6.30;;;;;;;3.27;100.00;95018.53;1035395;28;20080;-63
2024/02/27 01:26:35;;;;;;;12.20;6.20;;;;;;;3.25;100.00;95020.56;1039596;28;20043;-64
2024/02/27 01:27:06;;;;;;;9.00;6.07;;;;;;;3.25;100.00;95023.97;1039298;28;20033;-64
2024/02/27 01:27:36;;;;;;;12.70;6.95;;;;;;;3.22;100.00;95023.63;1035279;28;20030;-65
2024/02/27 01:28:07;;;;;;;14.13;7.15;;;;;;;3.22;100.00;95019.25;1039320;28;20029;-64
2024/02/27 01:28:37;;;;;;;16.70;6.68;;;;;;;3.23;100.00;95015.63;1039188;28;20268;-64
2024/02/27 01:29:07;;;;;;;14.13;6.60;;;;;;;3.09;100.00;94992.84;1038876;28;20034;-65
2024/02/27 01:29:38;;;;;;;10.80;6.35;;;;;;;3.22;100.00;95024.44;1040028;28;20033;-62
2024/02/27 01:30:09;;;;;;;11.73;6.15;;;;;;;3.20;100.00;95021.28;1039891;28;20706;-64
2024/02/27 01:30:39;;;;;;;12.25;6.25;;;;;;;3.22;100.00;95019.25;1039153;28;20034;-67
2024/02/27 01:31:10;;;;;;;12.27;5.82;;;;;;;3.22;100.00;95021.03;1039543;28;20036;-64
2024/02/27 01:31:40;;;;;;;12.35;6.22;;;;;;;3.21;100.00;95022.06;1039518;28;20056;-63
2024/02/27 01:32:11;;;;;;;12.55;6.50;;;;;;;3.21;100.00;95022.06;1039891;28;20032;-64
2024/02/27 01:32:41;;;;;;;12.88;6.07;;;;;;;3.21;100.00;95016.88;1039760;28;20056;-63
2024/02/27 01:33:12;;;;;;;12.98;6.15;;;;;;;3.20;100.00;95023.88;1040034;28;20025;-64
2024/02/27 01:33:43;;;;;;;11.38;5.97;;;;;;;3.20;100.00;95031.66;1039701;28;20048;-63
2024/02/27 01:34:13;;;;;;;14.02;6.95;;;;;;;3.20;100.00;95028.28;1039565;28;20033;-63
2024/02/27 01:34:43;;;;;;;12.25;6.05;;;;;;;3.21;100.00;95029.84;1039452;28;20437;-64
2024/02/27 01:35:18;;;;;;;12.38;6.50;;;;;;;3.22;100.00;95023.63;1039280;28;20030;-65
2024/02/27 01:35:48;;;;;;;11.38;5.45;;;;;;;3.22;100.00;95028.81;1039400;28;20032;-63
2024/02/27 01:36:19;;;;;;;12.52;6.78;;;;;;;3.26;100.00;95037.72;1042026;28;20275;-63
2024/02/27 01:36:49;;;;;;;13.60;6.20;;;;;;;3.26;100.00;95029.94;1039222;28;20436;-63
2024/02/27 01:37:19;;;;;;;11.23;6.25;;;;;;;3.27;100.00;95037.47;1040016;28;20083;-65
2024/02/27 01:37:50;;;;;;;11.77;6.15;;;;;;;3.28;100.00;95033.06;1042108;28;20020;-64
2024/02/27 01:38:20;;;;;;;10.85;6.13;;;;;;;3.29;100.00;95037.25;1039273;28;20030;-64
2024/02/27 01:38:51;;;;;;;10.98;6.50;;;;;;;3.28;100.00;95033.06;1039659;28;20037;-63
2024/02/27 01:39:21;;;;;;;11.45;6.25;;;;;;;3.30;100.00;95037.00;1039601;28;20113;-64
2024/02/27 01:39:52;;;;;;;11.75;6.57;;;;;;;3.24;100.00;95021.59;1038967;28;20407;-64
2024/02/27 01:40:22;;;;;;;13.40;6.45;;;;;;;3.29;100.00;95035.44;1038817;28;20029;-64
2024/02/27 01:40:53;;;;;;;12.55;6.70;;;;;;;3.28;100.00;95039.03;1039179;28;20029;-67
2024/02/27 01:41:23;;;;;;;9.90;5.85;;;;;;;3.29;100.00;95034.66;1039048;28;20053;-63
2024/02/27 01:41:54;;;;;;;10.70;6.32;;;;;;;3.30;100.00;95036.22;1039554;28;20476;-64
2024/02/27 01:42:24;;;;;;;11.32;6.57;;;;;;;3.30;100.00;95031.03;1039628;28;20048;-63
2024/02/27 01:42:57;;;;;;;11.85;6.15;;;;;;;3.30;100.00;95037.00;1039592;28;20041;-63
2024/02/27 01:43:28;;;;;;;10.88;5.72;;;;;;;3.27;100.00;95031.50;1039225;28;20272;-63
2024/02/27 01:43:58;;;;;;;12.77;6.40;;;;;;;3.27;100.00;95031.50;1039054;28;20037;-62
2024/02/27 01:44:29;;;;;;;12.55;6.15;;;;;;;3.25;100.00;95029.16;1039565;28;20026;-63
2024/02/27 01:44:59;;;;;;;11.80;6.45;;;;;;;3.29;100.00;95025.06;1039131;28;20033;-62
2024/02/27 01:45:30;;;;;;;10.18;6.22;;;;;;;3.29;100.00;95025.06;1039775;28;20560;-64
2024/02/27 01:46:09;;;;;;;11.60;6.68;;;;;;;3.28;100.00;95023.47;1039646;28;20061;-64
2024/02/27 01:46:40;;;;;;;12.82;6.65;;;;;;;3.30;100.00;95020.69;1035131;28;20010;-63
2024/02/27 01:47:10;;;;;;;12.65;7.10;;;;;;;3.28;100.00;95022.69;1039409;28;20279;-65
2024/02/27 01:47:40;;;;;;;10.23;6.35;;;;;;;3.28;100.00;95017.53;1035162;28;20030;-64
2024/02/27 01:48:11;;;;;;;14.63;6.50;;;;;;;3.28;100.00;95020.09;1035833;28;20049;-63
2024/02/27 01:48:43;;;;;;;11.57;6.25;;;;;;;3.31;100.00;95020.44;1036392;28;20025;-64
2024/02/27 01:49:14;;;;;;;13.55;5.88;;;;;;;3.34;100.00;95021.78;1031429;28;20018;-64
2024/02/27 01:49:44;;;;;;;11.95;6.28;;;;;;;3.30;100.00;95016.28;1035203;28;21008;-64
2024/02/27 01:50:17;;;;;;;11.88;6.25;;;;;;;3.30;100.00;95016.28;1032421;28;20052;-64
2024/02/27 01:50:47;;;;;;;10.48;6.50;;;;;;;3.29;100.00;95014.72;1039460;28;20029;-64
2024/02/27 01:51:18;;;;;;;12.18;6.20;;;;;;;3.29;100.00;95009.53;1043432;28;20255;-63
2024/02/27 01:51:48;;;;;;;12.00;6.65;;;;;;;3.31;100.00;95017.06;1034759;28;20072;-64
2024/02/27 01:52:19;;;;;;;13.05;6.63;;;;;;;3.30;100.00;95016.28;1030889;28;20030;-62
2024/02/27 01:52:49;;;;;;;11.50;6.10;;;;;;;3.32;100.00;95016.06;1031250;28;20026;-64
2024/02/27 01:53:20;;;;;;;12.65;7.13;;;;;;;3.33;100.00;95011.66;1027007;28;20478;-64
2024/02/27 01:53:52;;;;;;;12.57;6.07;;;;;;;3.35;100.00;95018.16;1037917;28;20128;-64
2024/02/27 01:54:26;;;;;;;10.32;5.80;;;;;;;3.36;100.00;95011.97;1034771;28;20025;-64
2024/02/27 01:54:56;;;;;;;13.77;6.97;;;;;;;3.34;100.00;95016.59;1031766;28;20257;-64
2024/02/27 01:55:27;;;;;;;13.60;5.93;;;;;;;3.35;100.00;95012.97;1035718;28;20303;-63
2024/02/27 01:55:57;;;;;;;10.90;5.70;;;;;;;3.40;100.00;95014.88;1039736;28;20025;-64
2024/02/27 01:56:28;;;;;;;14.48;6.53;;;;;;;3.36;100.00;95008.59;1035477;28;20041;-64
2024/02/27 01:56:58;;;;;;;13.48;6.88;;;;;;;3.35;100.00;95010.38;1038059;28;20112;-63
2024/02/27 01:57:29;;;;;;;11.23;6.18;;;;;;;3.33;100.00;95020.22;1035163;28;20029;-63
2024/02/27 01:57:59;;;;;;;13.73;6.72;;;;;;;3.30;100.00;95012.91;1035294;28;20026;-64
2024/02/27 01:58:30;;;;;;;14.38;6.78;;;;;;;3.31;100.00;95009.28;1034775;28;20417;-63
2024/02/27 01:59:00;;;;;;;13.45;6.15;;;;;;;3.28;100.00;95009.75;1030843;28;20508;-64
2024/02/27 01:59:31;;;;;;;13.70;6.32;;;;;;;3.29;100.00;95014.72;1031310;28;20038;-63
2024/02/27 02:00:05;;;;;;;14.23;6.00;;;;;;;3.30;100.00;95010.31;1031110;28;20400;-63
2024/02/27 02:00:35;;;;;;;10.63;6.68;;;;;;;3.30;100.00;95012.91;1033534;28;20091;-64
2024/02/27 02:01:07;;;;;;;10.73;6.25;;;;;;;3.28;100.00;95012.34;1034076;28;20273;-64
2024/02/27 02:01:38;;;;;;;11.60;6.90;;;;;;;3.28;100.00;95012.34;1034863;28;20597;-64
2024/02/27 02:02:09;;;;;;;16.55;7.40;;;;;;;3.28;100.00;95012.34;1036202;28;20257;-64
2024/02/27 02:02:43;;;;;;;13.98;6.55;;;;;;;3.29;100.00;95014.72;1035232;28;20784;-64
2024/02/27 02:03:13;;;;;;;10.48;5.97;;;;;;;3.27;100.00;95015.97;1039963;28;20072;-64
2024/02/27 02:03:44;;;;;;;14.60;6.80;;;;;;;3.28;100.00;95017.53;1039015;28;20327;-64
2024/02/27 02:04:15;;;;;;;11.80;6.65;;;;;;;3.26;100.00;95022.16;1039773;28;20037;-64
2024/02/27 02:04:45;;;;;;;11.90;7.10;;;;;;;3.25;100.00;95028.34;1039077;28;20026;-64
2024/02/27 02:05:16;;;;;;;12.63;6.75;;;;;;;3.27;100.00;95016.75;1039213;28;20393;-64
2024/02/27 02:05:46;;;;;;;12.57;6.20;;;;;;;3.27;100.00;95021.91;1037870;28;20071;-64
2024/02/27 02:06:17;;;;;;;12.85;6.47;;;;;;;3.29;100.00;95019.09;1039397;28;20025;-65
2024/02/27 02:06:47;;;;;;;11.70;6.68;;;;;;;3.31;100.00;95024.84;1043055;28;20485;-64
2024/02/27 02:07:18;;;;;;;11.55;6.38;;;;;;;3.30;100.00;95025.84;1036951;28;20053;-63
2024/02/27 02:07:48;;;;;;;11.88;6.05;;;;;;;3.28;100.00;95023.47;1039268;28;20413;-64
2024/02/27 02:08:19;;;;;;;11.55;6.53;;;;;;;3.33;100.00;95024.63;1038924;28;20033;-62
2024/02/27 02:08:49;;;;;;;14.80;6.15;;;;;;;3.33;100.00;95034.97;1034920;28;20061;-64
2024/02/27 02:09:20;;;;;;;10.57;5.95;;;;;;;3.33;100.00;95019.44;1034827;28;20037;-64
2024/02/27 02:09:50;;;;;;;10.52;6.55;;;;;;;3.31;100.00;95025.63;1035035;28;20525;-64
2024/02/27 02:10:21;;;;;;;12.15;6.55;;;;;;;3.29;100.00;95019.09;1037125;28;20045;-65
2024/02/27 02:10:51;;;;;;;11.82;6.05;;;;;;;3.31;100.00;95019.66;1037382;28;20028;-66
2024/02/27 02:11:22;;;;;;;13.93;6.53;;;;;;;3.27;100.00;95021.13;1034536;28;20018;-65
2024/02/27 02:11:52;;;;;;;14.05;6.38;;;;;;;3.27;100.00;95026.31;1034725;28;20030;-66
2024/02/27 02:12:23;;;;;;;11.30;6.25;;;;;;;3.26;100.00;95029.94;1036037;28;20026;-65
2024/02/27 02:12:53;;;;;;;11.13;6.25;;;;;;;3.24;100.00;95019.00;1042505;28;20017;-65
2024/02/27 02:13:24;;;;;;;11.55;6.25;;;;;;;3.21;100.00;95024.66;1038286;28;20022;-67
2024/02/27 02:13:54;;;;;;;12.13;7.13;;;;;;;3.22;100.00;95018.44;1034339;28;20041;-65
2024/02/27 02:14:25;;;;;;;13.13;6.80;;;;;;;3.20;100.00;95020.50;1030113;28;20035;-65
2024/02/27 02:14:55;;;;;;;12.40;6.28;;;;;;;3.18;100.00;95022.53;1026393;28;20023;-64
2024/02/27 02:15:26;;;;;;;13.80;6.63;;;;;;;3.20;100.00;95018.69;1025801;28;20086;-64
2024/02/27 02:15:56;;;;;;;13.23;6.22;;;;;;;3.18;100.00;95022.53;1033971;28;20486;-64
2024/02/27 02:16:27;;;;;;;10.65;6.75;;;;;;;3.17;100.00;95015.78;1038977;28;20029;-63
2024/02/27 02:16:57;;;;;;;14.90;6.22;;;;;;;3.16;100.00;95019.41;1043046;28;20024;-65
2024/02/27 02:17:27;;;;;;;12.30;6.45;;;;;;;3.16;100.00;95020.19;1038642;28;20489;-64
2024/02/27 02:17:58;;;;;;;11.27;6.70;;;;;;;3.14;100.00;95016.25;1038773;28;20021;-63
2024/02/27 02:18:28;;;;;;;13.73;7.03;;;;;;;3.17;100.00;95020.97;1031031;28;20038;-64
2024/02/27 02:18:59;;;;;;;10.88;6.63;;;;;;;3.14;100.00;95022.22;1026616;28;20027;-63
2024/02/27 02:19:29;;;;;;;11.82;6.70;;;;;;;3.15;100.00;95021.19;1030766;28;20034;-64
2024/02/27 02:20:00;;;;;;;15.73;7.13;;;;;;;3.15;100.00;95023.00;1031077;28;20042;-63
2024/02/27 02:20:30;;;;;;;13.13;6.60;;;;;;;3.16;100.00;95019.41;1034457;28;20068;-64
2024/02/27 02:21:01;;;;;;;11.88;6.57;;;;;;;3.17;100.00;95021.75;1039057;28;20438;-63
2024/02/27 02:21:33;;;;;;;12.68;6.90;;;;;;;3.14;100.00;95017.03;1038857;28;20072;-63
2024/02/27 02:22:03;;;;;;;11.77;6.78;;;;;;;3.09;100.00;95019.56;1034613;28;20391;-63
2024/02/27 02:22:34;;;;;;;12.77;7.25;;;;;;;3.11;100.00;95017.50;1035563;28;20276;-64
2024/02/27 02:23:04;;;;;;;9.57;6.03;;;;;;;3.08;100.00;95017.97;1029780;28;20018;-64
2024/02/27 02:23:35;;;;;;;15.27;7.05;;;;;;;3.06;100.00;95018.22;1032736;28;20030;-63